Flight Track Log - Related Links

Times and Time Zones

All times are in EDT time to prevent confusion due to time zone crossing. See the N987F flight status page for this flight to view local times or setup timezone preferences in your user account.

Time Position Orientation Groundspeed Altitude Reporting Facility
EDT Latitude Longitude Course Direction KTS MPH feet Rate Location/Type
Fri 06:39:39 PM 33.1231 -117.3192 59° Northeast 160 184 1,400  Level Los Angeles Center
Fri 06:40:41 PM 33.1131 -117.3911 261° West 208 239 4,300 2,419 Climbing Los Angeles Center
Fri 06:41:43 PM 33.1703 -117.4078 346° North 269 310 6,400 1,887 Climbing Los Angeles Center
Fri 06:42:45 PM 33.2053 -117.3283 62° Northeast 275 316 8,200 2,177 Climbing Los Angeles Center
Fri 06:43:47 PM 33.2408 -117.2506 61° Northeast 270 311 10,900 2,274 Climbing Los Angeles Center
Fri 06:44:49 PM 33.2792 -117.1589 63° Northeast 279 321 12,900 1,113 Climbing Los Angeles Center
Fri 06:45:00 PM 33.4482 -116.5536 59° Northeast  Level FlightAware Approximate
Fri 06:45:51 PM 33.3200 -117.0561 65° Northeast 332 382 13,200  Level Los Angeles Center
Fri 06:46:53 PM 33.3642 -116.9472 64° Northeast 358 412 15,800 2,419 Climbing Los Angeles Center
Fri 06:47:55 PM 33.4083 -116.8478 62° Northeast 344 396 18,200 2,274 Climbing Los Angeles Center
Fri 06:48:57 PM 33.4467 -116.7250 69° East 328 377 20,500 1,839 Climbing Los Angeles Center
Fri 06:49:59 PM 33.4819 -116.6197 68° East 338 389 22,000 1,392 Climbing Los Angeles Center
Fri 06:51:02 PM 33.5169 -116.5103 69° East 348 400 23,400 1,344 Climbing Los Angeles Center
Fri 06:52:04 PM 33.5536 -116.3992 68° East 355 409 24,800 1,220 Climbing Los Angeles Center
Fri 06:53:05 PM 33.5817 -116.3078 70° East 360 414 25,900 1,306 Climbing Los Angeles Center
Fri 06:54:08 PM 33.6269 -116.1689 69° East 368 423 27,500 1,344 Climbing Los Angeles Center
Fri 06:55:10 PM 33.7042 -116.0508 52° Northeast 376 433 28,700 1,210 Climbing Los Angeles Center
Fri 06:56:12 PM 33.7722 -115.9553 49° Northeast 377 434 30,000 1,161 Climbing Los Angeles Center
Fri 06:57:14 PM 33.8389 -115.8592 50° Northeast 375 432 31,100 1,016 Climbing Los Angeles Center
Fri 06:58:16 PM 33.9067 -115.7603 50° Northeast 380 437 32,100 1,016 Climbing Los Angeles Center
Fri 06:59:18 PM 33.9750 -115.6606 50° Northeast 386 444 33,200 968 Climbing Los Angeles Center
Fri 07:00:20 PM 34.0436 -115.5614 50° Northeast 385 443 34,100 1,065 Climbing Los Angeles Center
Fri 07:01:22 PM 34.1250 -115.4439 50° Northeast 381 438 35,400 1,161 Climbing Los Angeles Center
Fri 07:02:24 PM 34.1906 -115.3486 50° Northeast 373 429 36,500 768 Climbing Los Angeles Center
Fri 07:03:27 PM 34.2558 -115.2525 51° Northeast 370 426 37,000 240 Climbing Los Angeles Center
Fri 07:04:29 PM 34.3244 -115.1525 50° Northeast 383 441 37,000  Level Los Angeles Center
Fri 07:05:31 PM 34.3944 -115.0469 51° Northeast 399 459 37,000  Level Los Angeles Center
Fri 07:06:33 PM 34.4669 -114.9408 50° Northeast 410 472 37,000  Level Los Angeles Center
Fri 07:07:35 PM 34.5556 -114.8133 50° Northeast 411 473 37,000  Level Los Angeles Center
Fri 07:08:37 PM 34.6292 -114.7025 51° Northeast 419 482 37,000  Level Los Angeles Center
Fri 07:09:39 PM 34.7067 -114.5858 51° Northeast 422 486 37,000  Level Los Angeles Center
Fri 07:10:41 PM 34.7814 -114.4750 51° Northeast 425 489 37,000 97 Level Los Angeles Center
Fri 07:11:43 PM 34.8553 -114.3631 51° Northeast 426 490 37,200 484 Climbing Los Angeles Center
Fri 07:12:45 PM 34.9275 -114.2536 51° Northeast 417 480 38,000 574 Climbing Los Angeles Center
Fri 07:13:59 PM 34.9986 -114.1467 51° Northeast 409 471 38,500 438 Climbing Los Angeles Center
Fri 07:15:02 PM 35.0981 -113.9967 51° Northeast 406 467 39,000 240 Climbing Los Angeles Center
Fri 07:16:04 PM 35.1631 -113.8975 51° Northeast 410 472 39,000  Level Los Angeles Center
Fri 07:17:06 PM 35.2356 -113.7856 52° Northeast 420 483 39,000  Level Los Angeles Center
Fri 07:18:08 PM 35.3250 -113.6503 51° Northeast 426 490 39,000  Level Los Angeles Center
Fri 07:19:10 PM 35.3997 -113.5356 51° Northeast 429 494 39,000  Level Los Angeles Center
Fri 07:20:12 PM 35.4744 -113.4208 51° Northeast 432 497 39,000  Level Los Angeles Center
Fri 07:21:14 PM 35.5497 -113.3050 51° Northeast 431 496 39,000  Level Los Angeles Center
Fri 07:22:16 PM 35.6292 -113.1808 52° Northeast 430 495 39,000  Level Los Angeles Center
Fri 07:23:19 PM 35.6975 -113.0736 52° Northeast 427 491 39,000  Level Los Angeles Center
Fri 07:24:21 PM 35.7719 -112.9578 52° Northeast 430 495 39,000  Level Los Angeles Center
Fri 07:25:23 PM 35.8606 -112.8192 52° Northeast 430 495 39,000  Level Los Angeles Center
Fri 07:26:25 PM 35.9339 -112.7036 52° Northeast 429 494 39,000  Level Los Angeles Center
Fri 07:27:27 PM 36.0011 -112.5958 52° Northeast 428 493 39,000  Level Los Angeles Center
Fri 07:29:31 PM 36.1642 -112.3397 52° Northeast 432 497 39,000  Level Los Angeles Center
Fri 07:30:33 PM 36.2378 -112.2219 52° Northeast 434 499 39,000  Level Los Angeles Center
Fri 07:31:35 PM 36.3097 -112.1056 52° Northeast 430 495 39,000  Level Los Angeles Center
Fri 07:32:37 PM 36.3831 -111.9881 52° Northeast 431 496 39,000  Level Los Angeles Center
Fri 07:33:39 PM 36.4714 -111.8467 52° Northeast 434 499 39,000  Level Los Angeles Center
Fri 07:33:56 PM 36.4844 -111.8242 54° Northeast 432 497 39,000  Level Denver Center
Fri 07:34:57 PM 36.5583 -111.7067 52° Northeast 433 498 39,000  Level Denver Center
Fri 07:35:59 PM 36.6311 -111.5883 53° Northeast 434 499 39,000  Level Denver Center
Fri 07:37:01 PM 36.7044 -111.4689 53° Northeast 433 498 39,000  Level Denver Center
Fri 07:38:03 PM 36.7922 -111.3269 52° Northeast 433 498 39,000  Level Denver Center
Fri 07:39:05 PM 36.8653 -111.2081 52° Northeast 434 499 39,000  Level Denver Center
Fri 07:40:07 PM 36.9347 -111.0906 53° Northeast 427 491 39,000  Level Denver Center
Fri 07:41:09 PM 37.0075 -110.9694 53° Northeast 435 501 39,000  Level Denver Center
Fri 07:42:11 PM 37.0800 -110.8492 53° Northeast 435 501 39,000  Level Denver Center
Fri 07:43:13 PM 37.1531 -110.7297 52° Northeast 434 499 39,000  Level Denver Center
Fri 07:44:15 PM 37.2256 -110.5728 60° Northeast 442 509 39,000  Level Denver Center
Fri 07:45:17 PM 37.2692 -110.4314 69° East 438 504 39,000  Level Denver Center
Fri 07:46:19 PM 37.3225 -110.2944 64° Northeast 438 504 39,000  Level Denver Center
Fri 07:47:21 PM 37.3750 -110.1622 63° Northeast 437 503 39,000  Level Denver Center
Fri 07:48:23 PM 37.4411 -110.0108 61° Northeast 440 506 39,000  Level Denver Center
Fri 07:49:25 PM 37.4978 -109.8828 61° Northeast 437 503 39,000  Level Denver Center
Fri 07:50:26 PM 37.5669 -109.7353 59° Northeast 437 503 39,000  Level Denver Center
Fri 07:51:28 PM 37.6253 -109.6075 60° Northeast 439 505 39,000  Level Denver Center
Fri 07:52:30 PM 37.6922 -109.4586 60° Northeast 437 503 39,000  Level Denver Center
Fri 07:53:32 PM 37.7489 -109.3314 61° Northeast 434 499 39,000  Level Denver Center
Fri 07:54:34 PM 37.8347 -109.2019 50° Northeast 429 494 39,000  Level Denver Center
Fri 07:55:36 PM 37.9111 -109.0903 49° Northeast 434 499 39,000  Level Denver Center
Fri 07:56:38 PM 37.9872 -108.9797 49° Northeast 435 501 39,000  Level Denver Center
Fri 07:57:40 PM 38.0692 -108.8592 49° Northeast 435 501 39,000  Level Denver Center
Fri 07:58:42 PM 38.1578 -108.7267 50° Northeast 438 504 39,000  Level Denver Center
Fri 07:59:44 PM 38.2336 -108.6150 49° Northeast 436 502 39,000  Level Denver Center
Fri 08:00:46 PM 38.3394 -108.5081 38° Northeast 437 503 39,000  Level Denver Center
Fri 08:01:48 PM 38.4319 -108.4192 37° Northeast 435 501 39,000 -339 Level Denver Center
Fri 08:02:50 PM 38.5392 -108.3117 38° Northeast 441 507 38,300 -1,355 Descending Denver Center
Fri 08:03:52 PM 38.6336 -108.2225 36° Northeast 442 509 36,200 -2,226 Descending Denver Center
Fri 08:04:54 PM 38.7408 -108.1172 37° Northeast 435 501 33,700 -2,274 Descending Denver Center
Fri 08:05:56 PM 38.8258 -108.0197 42° Northeast 430 495 31,500 -2,323 Descending Denver Center
Fri 08:06:58 PM 38.9167 -107.8914 48° Northeast 437 503 28,900 -2,293 Descending Denver Center
Fri 08:07:59 PM 38.9925 -107.7858 47° Northeast 428 493 26,800 -2,244 Descending Denver Center
Fri 08:09:01 PM 39.0714 -107.6583 51° Northeast 414 476 24,300 -2,177 Descending Denver Center
Fri 08:10:03 PM 39.1294 -107.5439 57° Northeast 404 465 22,300 -1,839 Descending Denver Center
Fri 08:11:05 PM 39.1897 -107.4147 59° Northeast 383 441 20,500 -1,113 Descending Denver Center
Fri 08:12:07 PM 39.2408 -107.3103 58° Northeast 366 421 20,000 -794 Descending Denver Center
Fri 08:13:21 PM 39.3175 -107.2314 39° Northeast 345 397 18,700 -1,368 Descending Denver Center
Fri 08:14:23 PM 39.3975 -107.1575 36° Northeast 328 377 16,900 -2,274 Descending Denver Center
Fri 08:15:25 PM 39.4494 -107.0586 56° Northeast 320 368 14,000 -1,548 Descending Denver Center
Fri 08:16:27 PM 39.4153 -106.9786 119° Southeast 251 289 13,700 -1,113 Descending Denver Center
Fri 08:17:29 PM 39.3631 -106.9186 138° Southeast 237 273 11,700 -2,049 Descending Denver Center
Fri 08:18:30 PM 39.3128 -106.8922 158° South 208 239 9,500 -2,164 Descending Denver Center
Fri 08:20:00 PM 39.2167 -106.8667 176° South  Level FlightAware Approximate
Fri 08:27:00 PM 39.2219 -106.8682 176° South  Level Estimated

Login

Don't have an account? Register now (free) for customized features, flight alerts, and more!